Pernille — 5BNZ2 — position and weather

sailwx.info

Track history (hours):
 
Tides and Currents Weather Stations Pressure Air Temp Water Temp Dewpoint Dewpoint Depression Visibility Wind Speed Wind Dir Waves Ship Positions

Pernille

Last reported at 2014-Nov-22 02:21 UTC. Time now 2014-Nov-26 12:44 UTC.
Position N 38°31' W 009°30'.

Length 82 m; draft 3.5 m.

Type: Cargo ship. MMSI: 212662000.

Date/timePositionNaut miles runAvg speedWind from/ knotsBaromVisibWave heightAir tempDewpointWater temp
2014-Nov-22 02:21N 38°31' W 009°30'911.5
2014-Nov-22 01:32N 38°24' W 009°22'1010.5
2014-Nov-22 00:32N 38°21' W 009°09'1010.4
2014-Nov-21 23:33N 38°27' W 008°58'5 0.4
2014-Nov-21 11:16N 38°31' W 008°53'0 0.0
2014-Nov-21 10:31N 38°31' W 008°53'0 0.0
2014-Nov-21 09:19N 38°31' W 008°53'0 0.1
2014-Nov-21 07:33N 38°31' W 008°54'7 7.3
2014-Nov-21 06:34N 38°25' W 008°60'2 1.8
2014-Nov-21 05:33N 38°24' W 009°00'2 2.4
2014-Nov-21 04:33N 38°22' W 009°03'4 3.7
2014-Nov-21 03:33N 38°21' W 009°07'7 7.2
2014-Nov-21 02:33N 38°21' W 009°16'8 8.4
2014-Nov-21 01:33N 38°24' W 009°26'8 8.2
2014-Nov-21 00:33N 38°27' W 009°36'  
2014-Nov-16 11:21N 50°36' W 005°29'810.2
2014-Nov-16 10:33N 50°41' W 005°19'9011.2
2014-Nov-16 02:33N 51°21' W 003°12'1110.9
2014-Nov-16 01:33N 51°29' W 002°60'5 0.1
2014-Nov-13 22:28N 51°34' W 002°58'1 0.8
2014-Nov-13 21:33N 51°33' W 002°59'0 0.0
2014-Nov-13 17:17N 51°33' W 002°59'0 0.0
2014-Nov-13 16:23N 51°33' W 002°59'0 0.0
2014-Nov-13 09:29N 51°33' W 002°59'0 0.0
2014-Nov-13 08:29N 51°33' W 002°59'0 0.0
2014-Nov-13 07:29N 51°33' W 002°59'0 0.0
2014-Nov-13 04:23N 51°33' W 002°59'0 0.0
2014-Nov-13 03:23N 51°33' W 002°59'0 0.0
2014-Nov-13 02:29N 51°33' W 002°59'0 0.0
2014-Nov-13 01:29N 51°33' W 002°59'0 0.0
2014-Nov-13 00:29N 51°33' W 002°59'0 0.0
2014-Nov-12 22:05N 51°33' W 002°59'0 0.0
2014-Nov-12 17:29N 51°33' W 002°59'0 0.0
2014-Nov-12 16:05N 51°33' W 002°59'0 0.0
2014-Nov-12 15:23N 51°33' W 002°59'0 0.0
2014-Nov-12 12:11N 51°33' W 002°59'0 0.0
2014-Nov-12 11:11N 51°33' W 002°59'0 0.0
2014-Nov-12 04:29N 51°33' W 002°59'0 0.0
2014-Nov-12 03:29N 51°33' W 002°59'0 0.0
2014-Nov-12 02:23N 51°33' W 002°59'  
Track history (hours):
 
Tides and Currents Weather Stations Pressure Air Temp Water Temp Dewpoint Dewpoint Depression Visibility Wind Speed Wind Dir Waves Ship Positions

Pernille

Last reported at 2014-Nov-22 02:21 UTC. Time now 2014-Nov-26 12:44 UTC.
Position N 38°31' W 009°30'.

Length 82 m; draft 3.5 m.

Type: Cargo ship. MMSI: 212662000.

Date/timePositionNaut miles runAvg speedWind from/ knotsBaromVisibWave heightAir tempDewpointWater temp
2014-Nov-22 02:21N 38°31' W 009°30'911.5
2014-Nov-22 01:32N 38°24' W 009°22'1010.5
2014-Nov-22 00:32N 38°21' W 009°09'1010.4
2014-Nov-21 23:33N 38°27' W 008°58'5 0.4
2014-Nov-21 11:16N 38°31' W 008°53'0 0.0
2014-Nov-21 10:31N 38°31' W 008°53'0 0.0
2014-Nov-21 09:19N 38°31' W 008°53'0 0.1
2014-Nov-21 07:33N 38°31' W 008°54'7 7.3
2014-Nov-21 06:34N 38°25' W 008°60'2 1.8
2014-Nov-21 05:33N 38°24' W 009°00'2 2.4
2014-Nov-21 04:33N 38°22' W 009°03'4 3.7
2014-Nov-21 03:33N 38°21' W 009°07'7 7.2
2014-Nov-21 02:33N 38°21' W 009°16'8 8.4
2014-Nov-21 01:33N 38°24' W 009°26'8 8.2
2014-Nov-21 00:33N 38°27' W 009°36'  
2014-Nov-16 11:21N 50°36' W 005°29'810.2
2014-Nov-16 10:33N 50°41' W 005°19'9011.2
2014-Nov-16 02:33N 51°21' W 003°12'1110.9
2014-Nov-16 01:33N 51°29' W 002°60'5 0.1
2014-Nov-13 22:28N 51°34' W 002°58'1 0.8
2014-Nov-13 21:33N 51°33' W 002°59'0 0.0
2014-Nov-13 17:17N 51°33' W 002°59'0 0.0
2014-Nov-13 16:23N 51°33' W 002°59'0 0.0
2014-Nov-13 09:29N 51°33' W 002°59'0 0.0
2014-Nov-13 08:29N 51°33' W 002°59'0 0.0
2014-Nov-13 07:29N 51°33' W 002°59'0 0.0
2014-Nov-13 04:23N 51°33' W 002°59'0 0.0
2014-Nov-13 03:23N 51°33' W 002°59'0 0.0
2014-Nov-13 02:29N 51°33' W 002°59'0 0.0
2014-Nov-13 01:29N 51°33' W 002°59'0 0.0
2014-Nov-13 00:29N 51°33' W 002°59'0 0.0
2014-Nov-12 22:05N 51°33' W 002°59'0 0.0
2014-Nov-12 17:29N 51°33' W 002°59'0 0.0
2014-Nov-12 16:05N 51°33' W 002°59'0 0.0
2014-Nov-12 15:23N 51°33' W 002°59'0 0.0
2014-Nov-12 12:11N 51°33' W 002°59'0 0.0
2014-Nov-12 11:11N 51°33' W 002°59'0 0.0
2014-Nov-12 04:29N 51°33' W 002°59'0 0.0
2014-Nov-12 03:29N 51°33' W 002°59'0 0.0
2014-Nov-12 02:23N 51°33' W 002°59'  

Dump ship's entire track history